createdAt,value
2019-06-20T00:03:23.543Z,2.80
2019-06-20T00:08:47.830Z,3.60
2019-06-20T00:14:11.307Z,3.30
2019-06-20T00:19:34.759Z,3.03
2019-06-20T00:24:58.075Z,2.93
2019-06-20T00:30:21.726Z,3.10
2019-06-20T00:35:45.548Z,2.57
2019-06-20T00:41:10.528Z,2.70
2019-06-20T00:46:34.443Z,3.07
2019-06-20T00:51:59.692Z,3.30
2019-06-20T00:57:22.859Z,2.87
2019-06-20T01:02:46.175Z,3.20
2019-06-20T01:08:09.390Z,2.00
2019-06-20T01:13:34.297Z,3.30
2019-06-20T01:18:57.891Z,3.50
2019-06-20T01:24:22.035Z,3.43
2019-06-20T01:29:45.868Z,4.13
2019-06-20T01:35:10.183Z,2.43
2019-06-20T01:40:33.411Z,4.30
2019-06-20T01:45:56.990Z,6.27
2019-06-20T01:51:20.568Z,6.17
2019-06-20T01:56:43.875Z,8.43
2019-06-20T02:02:07.898Z,8.47
2019-06-20T02:07:31.864Z,13.00
2019-06-20T02:12:54.908Z,3.60
2019-06-20T02:18:18.559Z,3.87
2019-06-20T02:23:42.483Z,7.60
2019-06-20T02:29:05.903Z,13.67
2019-06-20T02:34:30.211Z,17.97
2019-06-20T02:39:54.027Z,11.23
2019-06-20T02:45:18.550Z,9.30
2019-06-20T02:50:42.105Z,13.67
2019-06-20T02:56:06.067Z,16.17
2019-06-20T03:01:29.232Z,21.53
2019-06-20T03:06:55.863Z,18.10
2019-06-20T03:12:19.692Z,12.20
2019-06-20T03:17:42.947Z,7.70
2019-06-20T03:23:06.095Z,14.97
2019-06-20T03:28:29.570Z,8.77
2019-06-20T03:33:53.545Z,16.40
2019-06-20T03:39:17.594Z,7.87
2019-06-20T03:44:41.514Z,16.43
2019-06-20T03:50:05.055Z,7.03
2019-06-20T03:55:28.087Z,11.00
2019-06-20T04:00:51.923Z,5.60
2019-06-20T04:06:15.991Z,15.53
2019-06-20T04:11:39.560Z,18.63
2019-06-20T04:17:02.835Z,12.13
2019-06-20T04:22:26.528Z,11.17
2019-06-20T04:27:55.556Z,18.97
2019-06-20T04:33:19.338Z,7.43
2019-06-20T04:38:42.863Z,6.33
2019-06-20T04:44:05.971Z,10.93
2019-06-20T04:49:29.490Z,8.77
2019-06-20T04:54:52.668Z,14.87
2019-06-20T05:00:16.292Z,19.40
2019-06-20T05:05:39.908Z,25.33
2019-06-20T05:11:03.134Z,18.07
2019-06-20T05:16:26.354Z,11.87
2019-06-20T05:21:50.387Z,15.43
2019-06-20T05:27:14.078Z,12.30
2019-06-20T05:32:38.015Z,14.60
2019-06-20T05:38:01.916Z,10.73
2019-06-20T05:43:25.647Z,15.93
2019-06-20T05:48:50.125Z,21.20
2019-06-20T05:54:13.539Z,16.53
2019-06-20T05:59:37.039Z,18.70
2019-06-20T06:05:01.706Z,14.37
2019-06-20T06:10:25.236Z,9.33
2019-06-20T06:15:49.328Z,11.40
2019-06-20T06:21:12.519Z,14.20
2019-06-20T06:26:35.824Z,17.27
2019-06-20T06:31:59.103Z,14.33
2019-06-20T06:37:22.035Z,15.60
2019-06-20T06:42:46.449Z,12.67
2019-06-20T06:48:09.604Z,15.13
2019-06-20T06:53:33.499Z,20.37
2019-06-20T06:58:56.857Z,11.50
2019-06-20T07:04:21.248Z,13.73
2019-06-20T07:09:44.449Z,7.47
2019-06-20T07:15:10.351Z,9.13
2019-06-20T07:20:33.994Z,10.67
2019-06-20T07:25:58.343Z,6.17
2019-06-20T07:31:21.787Z,11.73
2019-06-20T07:36:45.252Z,7.93
2019-06-20T07:42:09.259Z,9.30
2019-06-20T07:47:33.004Z,7.63
2019-06-20T07:53:02.099Z,8.27
2019-06-20T07:58:22.248Z,11.33
2019-06-20T08:03:45.868Z,9.07
2019-06-20T08:09:09.682Z,5.67
2019-06-20T08:14:33.368Z,7.87
2019-06-20T08:19:56.983Z,10.67
2019-06-20T08:25:21.504Z,6.27
2019-06-20T08:30:45.059Z,6.83
2019-06-20T08:36:08.911Z,5.93
2019-06-20T08:41:32.324Z,5.37
2019-06-20T08:46:56.902Z,7.43
2019-06-20T08:52:21.120Z,5.13
2019-06-20T08:57:44.489Z,6.07
2019-06-20T09:03:08.372Z,6.40
2019-06-20T09:08:31.680Z,5.40
2019-06-20T09:13:55.500Z,6.00
2019-06-20T09:19:19.096Z,8.17
2019-06-20T09:24:42.307Z,5.57
2019-06-20T09:30:07.684Z,5.80
2019-06-20T09:35:30.983Z,6.63
2019-06-20T09:40:54.874Z,5.67
2019-06-20T09:46:18.756Z,5.10
2019-06-20T09:51:41.979Z,4.30
2019-06-20T09:57:06.034Z,6.10
2019-06-20T10:02:29.801Z,6.63
2019-06-20T10:07:54.516Z,7.40
2019-06-20T10:13:18.822Z,6.43
2019-06-20T10:18:42.735Z,6.00
2019-06-20T10:24:06.500Z,4.43
2019-06-20T10:29:30.239Z,4.63
2019-06-20T10:34:53.708Z,4.23
2019-06-20T10:40:17.839Z,4.60
2019-06-20T10:45:44.095Z,6.53
2019-06-20T10:51:25.127Z,5.37
2019-06-20T10:56:49.034Z,5.20
2019-06-20T11:02:12.263Z,4.00
2019-06-20T11:07:36.253Z,5.80
2019-06-20T11:12:59.673Z,4.50
2019-06-20T11:18:23.275Z,4.40
2019-06-20T11:23:47.432Z,5.00
2019-06-20T11:29:11.607Z,5.23
2019-06-20T11:34:34.843Z,4.43
2019-06-20T11:39:58.082Z,5.63
2019-06-20T11:45:22.299Z,5.10
2019-06-20T11:50:46.526Z,5.43
2019-06-20T11:56:09.998Z,4.93
2019-06-20T12:01:33.642Z,7.13
2019-06-20T12:06:57.454Z,6.53
2019-06-20T12:12:21.189Z,5.87
2019-06-20T12:17:45.353Z,7.53
2019-06-20T12:23:10.942Z,5.70
2019-06-20T12:28:34.278Z,6.13
2019-06-20T12:33:57.476Z,6.97
2019-06-20T12:39:20.640Z,5.83
2019-06-20T12:44:45.903Z,5.67
2019-06-20T12:50:10.663Z,6.93
2019-06-20T12:55:34.088Z,6.50
2019-06-20T13:00:57.603Z,5.37
2019-06-20T13:06:20.984Z,6.20
2019-06-20T13:11:44.886Z,5.37
2019-06-20T13:17:08.787Z,5.10
2019-06-20T13:22:32.375Z,4.90
2019-06-20T13:27:55.795Z,4.33
2019-06-20T13:33:19.398Z,4.57
2019-06-20T13:38:44.490Z,5.20
2019-06-20T13:44:08.783Z,4.77
2019-06-20T13:49:32.319Z,4.53
2019-06-20T13:54:55.516Z,3.73
2019-06-20T14:00:20.826Z,4.87
2019-06-20T14:05:45.415Z,5.03
2019-06-20T14:11:09.423Z,3.83
2019-06-20T14:16:33.319Z,3.93
2019-06-20T14:21:57.316Z,4.07
2019-06-20T14:27:21.053Z,4.20
2019-06-20T14:32:45.236Z,6.43
2019-06-20T14:38:09.739Z,5.33
2019-06-20T14:43:33.717Z,5.73
2019-06-20T14:48:57.474Z,6.60
2019-06-20T14:54:20.852Z,6.57
2019-06-20T14:59:45.056Z,4.70
2019-06-20T15:05:16.195Z,5.17
2019-06-20T15:10:39.966Z,6.50
2019-06-20T15:16:04.027Z,5.33
2019-06-20T15:21:28.599Z,4.50
2019-06-20T15:26:52.414Z,6.13
2019-06-20T15:32:16.055Z,5.03
2019-06-20T15:37:40.040Z,4.90
2019-06-20T15:43:04.077Z,4.47
2019-06-20T15:48:27.883Z,4.07
2019-06-20T15:53:51.299Z,4.10
2019-06-20T15:59:15.191Z,4.27
2019-06-20T16:04:38.952Z,3.73
2019-06-20T16:10:02.756Z,3.70
2019-06-20T16:15:26.013Z,3.23
2019-06-20T16:20:50.238Z,3.80
2019-06-20T16:26:13.977Z,4.37
2019-06-20T16:31:37.487Z,4.03
2019-06-20T16:37:09.649Z,3.60
2019-06-20T16:42:26.676Z,3.57
2019-06-20T16:47:50.460Z,4.70
2019-06-20T16:53:14.188Z,3.73
2019-06-20T16:58:37.382Z,3.47
2019-06-20T17:04:01.582Z,2.97
2019-06-20T17:09:24.867Z,3.23
2019-06-20T17:14:48.389Z,3.20
2019-06-20T17:20:13.602Z,2.67
2019-06-20T17:25:36.567Z,2.70
2019-06-20T17:30:59.794Z,3.00
2019-06-20T17:36:23.197Z,2.50
2019-06-20T17:41:55.335Z,4.13
2019-06-20T17:47:11.623Z,4.20
2019-06-20T17:52:35.087Z,7.13
2019-06-20T17:57:59.140Z,5.57
2019-06-20T18:03:23.085Z,3.90
2019-06-20T18:08:47.632Z,4.37
2019-06-20T18:14:10.881Z,5.93
2019-06-20T18:19:34.757Z,5.00
2019-06-20T18:24:58.096Z,7.67
2019-06-20T18:30:34.713Z,4.30
2019-06-20T18:35:58.233Z,5.60
2019-06-20T18:41:22.185Z,3.70
2019-06-20T18:46:45.986Z,8.50
2019-06-20T18:52:09.934Z,7.67
2019-06-20T18:57:33.323Z,8.77
2019-06-20T19:02:56.539Z,8.93
2019-06-20T19:08:20.077Z,4.57
2019-06-20T19:13:43.846Z,6.50
2019-06-20T19:19:07.111Z,3.70
2019-06-20T19:24:31.368Z,3.70
2019-06-20T19:29:55.266Z,7.90
2019-06-20T19:35:19.427Z,9.10
2019-06-20T19:40:47.820Z,6.43
2019-06-20T19:46:11.928Z,10.17
2019-06-20T19:51:36.090Z,4.57
2019-06-20T19:57:00.044Z,4.60
2019-06-20T20:02:24.164Z,4.50
2019-06-20T20:07:48.455Z,4.23
2019-06-20T20:13:15.092Z,4.00
2019-06-20T20:18:36.734Z,4.20
2019-06-20T20:24:00.655Z,5.63
2019-06-20T20:29:24.726Z,5.47
2019-06-20T20:34:48.546Z,5.00
2019-06-20T20:40:12.876Z,3.83
2019-06-20T20:45:36.803Z,3.57
2019-06-20T20:51:00.039Z,7.50
2019-06-20T20:56:23.664Z,4.93
2019-06-20T21:01:48.228Z,4.97
2019-06-20T21:07:11.867Z,7.47
2019-06-20T21:12:35.935Z,5.40
2019-06-20T21:17:59.621Z,5.33
2019-06-20T21:23:23.750Z,4.23
2019-06-20T21:28:47.899Z,5.00
2019-06-20T21:34:11.019Z,3.87
2019-06-20T21:39:34.606Z,3.80
2019-06-20T21:44:57.766Z,4.97
2019-06-20T21:50:21.154Z,4.87
2019-06-20T21:55:45.159Z,5.73
2019-06-20T22:01:09.948Z,4.10
2019-06-20T22:06:33.279Z,3.87
2019-06-20T22:11:56.771Z,3.77
2019-06-20T22:17:20.669Z,4.00
2019-06-20T22:22:44.286Z,3.27
2019-06-20T22:28:08.370Z,3.60
2019-06-20T22:33:32.196Z,3.90
2019-06-20T22:38:56.034Z,4.17
2019-06-20T22:44:19.347Z,4.50
2019-06-20T22:49:42.703Z,5.17
2019-06-20T22:55:06.435Z,4.03
2019-06-20T23:00:29.484Z,7.10
2019-06-20T23:05:52.761Z,4.80
2019-06-20T23:11:15.970Z,4.10
2019-06-20T23:16:39.586Z,4.07
2019-06-20T23:22:03.027Z,4.30
2019-06-20T23:27:26.619Z,3.40
2019-06-20T23:32:50.780Z,4.47
2019-06-20T23:38:13.898Z,3.40
2019-06-20T23:43:37.943Z,3.37
2019-06-20T23:49:01.631Z,3.30
2019-06-20T23:54:24.767Z,3.30
2019-06-20T23:59:48.211Z,3.20
